createdAt,value
2019-01-26T00:01:54.543Z,96703.26
2019-01-26T00:04:56.169Z,96700.86
2019-01-26T00:07:52.661Z,96691.71
2019-01-26T00:10:49.203Z,96691.71
2019-01-26T00:13:47.016Z,96692.09
2019-01-26T00:16:44.573Z,96685.80
2019-01-26T00:19:41.187Z,96686.55
2019-01-26T00:22:36.711Z,96684.86
2019-01-26T00:25:32.651Z,96682.08
2019-01-26T00:28:27.959Z,96684.27
2019-01-26T00:31:24.513Z,96678.81
2019-01-26T00:34:20.266Z,96685.02
2019-01-26T00:37:17.931Z,96681.00
2019-01-26T00:40:14.416Z,96681.00
2019-01-26T00:43:09.880Z,96677.73
2019-01-26T00:46:06.333Z,96676.48
2019-01-26T00:49:00.775Z,96681.94
2019-01-26T00:51:57.276Z,96676.19
2019-01-26T00:54:53.019Z,96676.19
2019-01-26T00:57:50.532Z,96667.20
2019-01-26T01:00:46.113Z,96671.49
2019-01-26T01:03:42.851Z,96667.39
2019-01-26T01:06:39.321Z,96655.89
2019-01-26T01:09:34.076Z,96651.71
2019-01-26T01:12:30.410Z,96650.17
2019-01-26T01:15:27.092Z,96641.78
2019-01-26T01:18:25.559Z,96636.52
2019-01-26T01:21:22.086Z,96634.48
2019-01-26T01:24:17.578Z,96626.73
2019-01-26T01:27:20.934Z,96629.38
2019-01-26T01:30:16.257Z,96629.08
2019-01-26T01:33:13.235Z,96623.66
2019-01-26T01:36:09.607Z,96623.81
2019-01-26T01:39:05.550Z,96621.17
2019-01-26T01:42:01.968Z,96621.62
2019-01-26T01:44:57.439Z,96616.66
2019-01-26T01:47:54.946Z,96612.63
2019-01-26T01:50:50.704Z,96611.09
2019-01-26T01:53:47.111Z,96604.88
2019-01-26T01:56:44.600Z,96601.16
2019-01-26T01:59:40.108Z,96593.03
2019-01-26T02:02:36.450Z,96594.65
2019-01-26T02:05:31.470Z,96596.75
2019-01-26T02:08:29.503Z,96596.34
2019-01-26T02:11:26.050Z,96594.05
2019-01-26T02:14:27.420Z,96586.59
2019-01-26T02:17:35.202Z,96585.87
2019-01-26T02:20:33.084Z,96582.72
2019-01-26T02:23:29.680Z,96578.61
2019-01-26T02:26:25.156Z,96573.72
2019-01-26T02:29:22.690Z,96567.20
2019-01-26T02:32:18.434Z,96556.17
2019-01-26T02:35:14.983Z,96545.94
2019-01-26T02:38:12.658Z,96525.27
2019-01-26T02:41:08.392Z,96520.38
2019-01-26T02:44:05.921Z,96513.93
2019-01-26T02:47:00.804Z,96513.17
2019-01-26T02:49:58.071Z,96503.23
2019-01-26T02:52:53.508Z,96502.14
2019-01-26T02:55:50.048Z,96502.14
2019-01-26T02:58:47.516Z,96510.53
2019-01-26T03:01:43.873Z,96500.90
2019-01-26T03:04:38.633Z,96499.28
2019-01-26T03:07:35.936Z,96508.05
2019-01-26T03:10:32.271Z,96507.97
2019-01-26T03:13:29.646Z,96501.38
2019-01-26T03:16:27.129Z,96493.44
2019-01-26T03:19:24.653Z,96485.23
2019-01-26T03:22:22.414Z,96485.99
2019-01-26T03:25:17.771Z,96483.50
2019-01-26T03:28:14.188Z,96475.74
2019-01-26T03:31:09.771Z,96457.59
2019-01-26T03:34:06.433Z,96452.77
2019-01-26T03:37:03.133Z,96451.66
2019-01-26T03:39:59.625Z,96441.31
2019-01-26T03:42:56.389Z,96439.20
2019-01-26T03:45:51.873Z,96451.77
2019-01-26T03:48:48.588Z,96460.09
2019-01-26T03:51:44.311Z,96459.85
2019-01-26T03:54:40.665Z,96462.02
2019-01-26T03:57:36.416Z,96467.79
2019-01-26T04:00:38.039Z,96465.23
2019-01-26T04:03:33.575Z,96457.61
2019-01-26T04:06:28.715Z,96454.60
2019-01-26T04:09:25.066Z,96455.74
2019-01-26T04:12:21.917Z,96451.95
2019-01-26T04:15:18.663Z,96445.28
2019-01-26T04:18:13.557Z,96445.73
2019-01-26T04:21:16.223Z,96438.14
2019-01-26T04:24:17.739Z,96442.31
2019-01-26T04:27:13.185Z,96435.66
2019-01-26T04:30:16.083Z,96432.38
2019-01-26T04:33:17.464Z,96418.70
2019-01-26T04:36:14.169Z,96422.19
2019-01-26T04:39:09.806Z,96421.56
2019-01-26T04:42:07.014Z,96423.36
2019-01-26T04:45:02.504Z,96426.30
2019-01-26T04:47:59.039Z,96417.28
2019-01-26T04:50:55.490Z,96414.03
2019-01-26T04:53:52.297Z,96416.17
2019-01-26T04:56:49.835Z,96408.41
2019-01-26T04:59:45.263Z,96410.13
2019-01-26T05:02:41.775Z,96393.66
2019-01-26T05:05:37.202Z,96390.05
2019-01-26T05:08:35.047Z,96386.45
2019-01-26T05:11:31.752Z,96384.91
2019-01-26T05:14:28.234Z,96390.01
2019-01-26T05:17:24.992Z,96390.87
2019-01-26T05:20:23.713Z,96393.48
2019-01-26T05:23:21.053Z,96403.66
2019-01-26T05:26:16.736Z,96395.89
2019-01-26T05:29:13.348Z,96400.55
2019-01-26T05:32:09.028Z,96386.55
2019-01-26T05:35:06.412Z,96388.37
2019-01-26T05:38:01.986Z,96385.95
2019-01-26T05:40:59.471Z,96381.97
2019-01-26T05:43:55.999Z,96383.69
2019-01-26T05:46:52.380Z,96375.44
2019-01-26T05:49:48.839Z,96367.27
2019-01-26T05:52:44.595Z,96373.55
2019-01-26T05:55:41.163Z,96377.41
2019-01-26T05:58:37.509Z,96366.83
2019-01-26T06:01:34.985Z,96357.80
2019-01-26T06:04:31.678Z,96361.33
2019-01-26T06:07:27.117Z,96356.64
2019-01-26T06:10:23.580Z,96356.77
2019-01-26T06:13:19.311Z,96351.85
2019-01-26T06:16:15.588Z,96349.42
2019-01-26T06:19:11.069Z,96356.25
2019-01-26T06:22:08.906Z,96354.69
2019-01-26T06:25:05.841Z,96351.42
2019-01-26T06:28:01.330Z,96340.67
2019-01-26T06:31:03.770Z,96352.31
2019-01-26T06:34:00.285Z,96354.04
2019-01-26T06:36:56.783Z,96355.73
2019-01-26T06:39:52.157Z,96352.47
2019-01-26T06:42:50.967Z,96352.47
2019-01-26T06:45:53.626Z,96357.58
2019-01-26T06:48:55.111Z,96362.11
2019-01-26T06:52:04.973Z,96358.37
2019-01-26T06:55:00.720Z,96371.71
2019-01-26T06:57:58.502Z,96363.48
2019-01-26T07:00:53.871Z,96359.92
2019-01-26T07:03:50.375Z,96364.64
2019-01-26T07:07:00.840Z,96362.43
2019-01-26T07:09:56.521Z,96365.78
2019-01-26T07:12:55.232Z,96365.96
2019-01-26T07:15:50.663Z,96367.81
2019-01-26T07:18:46.947Z,96366.44
2019-01-26T07:21:41.756Z,96379.19
2019-01-26T07:24:38.142Z,96373.06
2019-01-26T07:27:35.667Z,96378.93
2019-01-26T07:30:32.054Z,96373.30
2019-01-26T07:33:28.837Z,96382.50
2019-01-26T07:36:25.434Z,96365.98
2019-01-26T07:39:24.097Z,96366.87
2019-01-26T07:42:21.604Z,96368.59
2019-01-26T07:45:17.497Z,96363.72
2019-01-26T07:48:16.978Z,96359.28
2019-01-26T07:51:09.615Z,96357.29
2019-01-26T07:54:06.510Z,96358.36
2019-01-26T07:57:03.013Z,96354.26
2019-01-26T07:59:58.621Z,96358.59
2019-01-26T08:02:56.334Z,96356.69
2019-01-26T08:05:51.881Z,96358.97
2019-01-26T08:08:48.485Z,96343.30
2019-01-26T08:11:43.994Z,96339.29
2019-01-26T08:14:40.670Z,96332.73
2019-01-26T08:17:36.732Z,96333.61
2019-01-26T08:20:35.851Z,96336.25
2019-01-26T08:23:32.297Z,96339.77
2019-01-26T08:26:28.196Z,96332.41
2019-01-26T08:29:24.965Z,96342.91
2019-01-26T08:32:21.655Z,96335.92
2019-01-26T08:35:18.322Z,96339.48
2019-01-26T08:38:15.839Z,96342.52
2019-01-26T08:41:18.328Z,96337.20
2019-01-26T08:44:17.064Z,96337.34
2019-01-26T08:47:13.740Z,96342.45
2019-01-26T08:50:09.454Z,96346.77
2019-01-26T08:53:06.410Z,96338.59
2019-01-26T08:56:02.022Z,96331.25
2019-01-26T08:58:58.652Z,96341.44
2019-01-26T09:02:03.498Z,96334.86
2019-01-26T09:05:07.286Z,96343.27
2019-01-26T09:08:04.005Z,96333.39
2019-01-26T09:10:59.871Z,96329.45
2019-01-26T09:13:58.271Z,96337.09
2019-01-26T09:16:53.760Z,96330.96
2019-01-26T09:19:50.274Z,96324.80
2019-01-26T09:22:45.943Z,96329.09
2019-01-26T09:25:43.627Z,96333.85
2019-01-26T09:28:40.753Z,96329.10
2019-01-26T09:31:36.091Z,96335.11
2019-01-26T09:34:33.588Z,96334.87
2019-01-26T09:37:29.238Z,96342.55
2019-01-26T09:40:25.598Z,96341.06
2019-01-26T09:43:21.991Z,96340.44
2019-01-26T09:46:19.011Z,96323.05
2019-01-26T09:49:13.733Z,96319.44
2019-01-26T09:52:15.246Z,96333.27
2019-01-26T09:55:12.280Z,96321.79
2019-01-26T09:58:08.759Z,96318.52
2019-01-26T10:01:06.453Z,96316.55
2019-01-26T10:04:06.921Z,96322.02
2019-01-26T10:07:08.847Z,96317.12
2019-01-26T10:10:10.568Z,96313.03
2019-01-26T10:13:07.229Z,96308.38
2019-01-26T10:16:04.955Z,96300.20
2019-01-26T10:19:00.555Z,96302.36
2019-01-26T10:21:57.202Z,96314.13
2019-01-26T10:24:53.715Z,96314.13
2019-01-26T10:27:50.417Z,96311.76
2019-01-26T10:30:53.555Z,96308.02
2019-01-26T10:33:51.263Z,96306.95
2019-01-26T10:39:20.403Z,96298.52
2019-01-26T10:42:18.382Z,96309.67
2019-01-26T10:44:49.327Z,96305.02
2019-01-26T10:47:20.186Z,96309.58
2019-01-26T10:49:50.653Z,96314.67
2019-01-26T10:52:21.454Z,96317.98
2019-01-26T11:08:16.547Z,96285.11
2019-01-26T11:10:57.564Z,96294.08
2019-01-26T11:13:28.478Z,96280.42
2019-01-26T11:15:58.645Z,96276.80
2019-01-26T11:18:30.193Z,96277.70
2019-01-26T11:21:02.369Z,96281.53
2019-01-26T11:23:34.217Z,96271.97
2019-01-26T11:26:06.113Z,96275.84
2019-01-26T11:28:37.929Z,96273.13
2019-01-26T11:31:08.116Z,96267.39
2019-01-26T11:33:38.313Z,96260.88
2019-01-26T11:36:08.427Z,96259.88
2019-01-26T11:38:38.516Z,96263.75
2019-01-26T11:41:09.715Z,96252.23
2019-01-26T11:43:40.794Z,96252.44
2019-01-26T11:46:33.857Z,96284.61
2019-01-26T11:49:03.945Z,96238.33
2019-01-26T11:51:44.150Z,96243.33
2019-01-26T11:54:15.867Z,96226.72
2019-01-26T11:56:57.387Z,96226.72
2019-01-26T11:59:27.673Z,96219.30
2019-01-26T12:02:17.420Z,96218.59
2019-01-26T12:04:54.824Z,96220.36
2019-01-26T12:07:33.418Z,96207.60
2019-01-26T12:10:03.763Z,96208.11
2019-01-26T12:12:34.742Z,96203.30
2019-01-26T12:15:05.855Z,96203.48
2019-01-26T12:17:36.770Z,96187.69
2019-01-26T12:20:09.655Z,96193.62
2019-01-26T12:22:40.217Z,96197.09
2019-01-26T12:25:10.597Z,96193.88
2019-01-26T12:27:41.622Z,96199.97
2019-01-26T12:30:13.135Z,96196.86
2019-01-26T12:32:43.324Z,96194.64
2019-01-26T12:35:15.210Z,96188.98
2019-01-26T12:37:45.259Z,96192.55
2019-01-26T12:40:15.284Z,96186.89
2019-01-26T12:42:45.309Z,96190.03
2019-01-26T12:45:17.946Z,96193.06
2019-01-26T12:47:47.981Z,96191.48
2019-01-26T12:50:18.001Z,96193.70
2019-01-26T12:52:48.029Z,96192.34
2019-01-26T12:55:18.061Z,96184.83
2019-01-26T12:57:48.052Z,96186.61
2019-01-26T13:00:19.641Z,96188.81
2019-01-26T13:02:49.749Z,96185.95
2019-01-26T13:05:19.771Z,96186.41
2019-01-26T13:07:49.809Z,96185.16
2019-01-26T13:10:32.484Z,96183.44
2019-01-26T13:13:02.467Z,96184.70
2019-01-26T13:15:32.595Z,96185.59
2019-01-26T13:18:02.658Z,96181.89
2019-01-26T13:20:32.699Z,96183.54
2019-01-26T13:23:02.811Z,96191.06
2019-01-26T13:25:32.848Z,96182.72
2019-01-26T13:28:02.920Z,96183.08
2019-01-26T13:30:32.988Z,96179.32
2019-01-26T13:33:02.976Z,96184.33
2019-01-26T13:35:33.043Z,96181.83
2019-01-26T13:38:03.035Z,96182.72
2019-01-26T13:40:33.446Z,96176.88
2019-01-26T13:43:03.461Z,96181.89
2019-01-26T13:45:33.532Z,96176.08
2019-01-26T13:48:03.679Z,96165.72
2019-01-26T13:50:33.771Z,96171.23
2019-01-26T13:53:03.865Z,96171.66
2019-01-26T13:55:33.887Z,96167.95
2019-01-26T13:58:04.104Z,96162.18
2019-01-26T14:00:34.127Z,96165.97
2019-01-26T14:03:04.319Z,96161.48
2019-01-26T14:05:34.423Z,96160.69
2019-01-26T14:08:04.626Z,96159.03
2019-01-26T14:10:34.630Z,96161.61
2019-01-26T14:13:05.260Z,96158.30
2019-01-26T14:15:35.259Z,96163.44
2019-01-26T14:18:05.431Z,96158.52
2019-01-26T14:20:35.437Z,96163.95
2019-01-26T14:23:05.533Z,96174.45
2019-01-26T14:25:35.511Z,96163.22
2019-01-26T14:28:05.707Z,96162.86
2019-01-26T14:30:38.610Z,96159.09
2019-01-26T14:33:08.574Z,96158.36
2019-01-26T14:35:38.660Z,96160.47
2019-01-26T14:38:08.828Z,96161.35
2019-01-26T14:40:38.868Z,96160.55
2019-01-26T14:43:08.888Z,96156.33
2019-01-26T14:45:38.909Z,96144.67
2019-01-26T14:48:08.906Z,96149.78
2019-01-26T14:50:39.038Z,96148.12
2019-01-26T14:53:09.136Z,96140.22
2019-01-26T14:55:39.345Z,96141.59
2019-01-26T14:58:09.441Z,96137.91
2019-01-26T15:00:39.725Z,96132.58
2019-01-26T15:03:09.834Z,96139.31
2019-01-26T15:05:39.988Z,96141.77
2019-01-26T15:08:10.130Z,96140.00
2019-01-26T15:10:40.260Z,96138.17
2019-01-26T15:13:10.397Z,96134.27
2019-01-26T15:15:40.624Z,96129.95
2019-01-26T15:18:10.749Z,96130.76
2019-01-26T15:20:41.513Z,96132.60
2019-01-26T15:23:12.399Z,96132.52
2019-01-26T15:25:42.521Z,96139.03
2019-01-26T15:28:12.671Z,96133.06
2019-01-26T15:30:43.621Z,96133.98
2019-01-26T15:33:14.453Z,96133.98
2019-01-26T15:35:44.528Z,96126.67
2019-01-26T15:38:14.587Z,96116.52
2019-01-26T15:40:44.607Z,96125.13
2019-01-26T15:43:14.639Z,96121.22
2019-01-26T15:45:46.807Z,96128.67
2019-01-26T15:48:16.961Z,96126.89
2019-01-26T15:50:47.002Z,96127.72
2019-01-26T15:53:17.301Z,96128.05
2019-01-26T15:55:47.362Z,96135.06
2019-01-26T15:58:17.410Z,96135.95
2019-01-26T16:00:47.579Z,96133.75
2019-01-26T16:03:17.630Z,96129.92
2019-01-26T16:05:47.732Z,96129.75
2019-01-26T16:08:17.783Z,96127.22
2019-01-26T16:10:47.852Z,96126.36
2019-01-26T16:13:17.878Z,96123.45
2019-01-26T16:15:47.968Z,96121.38
2019-01-26T16:18:17.942Z,96123.03
2019-01-26T16:20:47.989Z,96125.50
2019-01-26T16:23:18.003Z,96126.72
2019-01-26T16:25:48.036Z,96127.55
2019-01-26T16:28:18.012Z,96121.28
2019-01-26T16:30:48.084Z,96127.08
2019-01-26T16:33:18.897Z,96117.88
2019-01-26T16:35:48.953Z,96116.17
2019-01-26T16:38:19.121Z,96116.17
2019-01-26T16:40:49.391Z,96108.76
2019-01-26T16:43:19.519Z,96109.19
2019-01-26T16:45:49.575Z,96105.50
2019-01-26T16:48:19.628Z,96106.25
2019-01-26T16:50:49.902Z,96097.84
2019-01-26T16:53:20.091Z,96094.45
2019-01-26T16:55:51.241Z,96096.95
2019-01-26T16:58:21.232Z,96095.17
2019-01-26T17:00:53.828Z,96084.73
2019-01-26T17:03:23.950Z,96072.60
2019-01-26T17:05:54.148Z,96085.09
2019-01-26T17:08:24.391Z,96083.91
2019-01-26T17:10:54.523Z,96093.53
2019-01-26T17:13:24.915Z,96085.09
2019-01-26T17:15:55.049Z,96082.52
2019-01-26T17:18:25.148Z,96077.84
2019-01-26T17:20:55.419Z,96069.11
2019-01-26T17:23:25.715Z,96074.12
2019-01-26T17:25:55.870Z,96078.66
2019-01-26T17:28:25.990Z,96076.63
2019-01-26T17:30:56.151Z,96065.78
2019-01-26T17:33:26.186Z,96063.27
2019-01-26T17:35:56.337Z,96059.98
2019-01-26T17:38:26.429Z,96054.08
2019-01-26T17:40:56.469Z,96052.37
2019-01-26T17:43:26.683Z,96055.33
2019-01-26T17:45:56.832Z,96047.89
2019-01-26T17:48:27.009Z,96050.03
2019-01-26T17:50:57.095Z,96047.23
2019-01-26T17:53:27.250Z,96051.80
2019-01-26T17:55:57.343Z,96031.73
2019-01-26T17:58:27.468Z,96028.38
2019-01-26T18:01:01.240Z,96024.22
2019-01-26T18:03:31.347Z,96033.75
2019-01-26T18:06:01.437Z,96032.44
2019-01-26T18:08:31.630Z,96036.55
2019-01-26T18:11:01.762Z,96036.52
2019-01-26T18:13:31.861Z,96033.52
2019-01-26T18:16:02.015Z,96034.70
2019-01-26T18:18:32.172Z,96036.39
2019-01-26T18:21:02.434Z,96025.95
2019-01-26T18:23:34.115Z,96025.05
2019-01-26T18:26:07.821Z,96023.80
2019-01-26T18:28:38.120Z,96025.05
2019-01-26T18:31:08.253Z,96011.19
2019-01-26T18:33:38.669Z,96005.75
2019-01-26T18:36:08.731Z,96021.59
2019-01-26T18:38:38.919Z,96011.12
2019-01-26T18:41:09.010Z,96013.20
2019-01-26T18:43:39.215Z,96008.88
2019-01-26T18:46:09.327Z,96015.08
2019-01-26T18:48:39.395Z,96006.61
2019-01-26T18:51:09.545Z,95996.53
2019-01-26T18:53:39.706Z,96000.64
2019-01-26T18:56:09.830Z,95997.78
2019-01-26T18:58:39.961Z,95994.09
2019-01-26T19:01:10.055Z,95996.59
2019-01-26T19:04:09.008Z,95989.97
2019-01-26T19:06:39.243Z,95981.67
2019-01-26T19:09:11.404Z,95988.30
2019-01-26T19:11:41.544Z,95980.85
2019-01-26T19:14:11.889Z,95974.20
2019-01-26T19:16:42.234Z,95978.34
2019-01-26T19:19:12.401Z,95980.06
2019-01-26T19:21:42.678Z,95967.08
2019-01-26T19:24:12.845Z,95971.66
2019-01-26T19:26:42.949Z,95963.36
2019-01-26T19:29:13.133Z,95970.94
2019-01-26T19:31:43.271Z,95965.11
2019-01-26T19:34:13.465Z,95973.56
2019-01-26T19:36:43.656Z,95961.08
2019-01-26T19:39:13.781Z,95965.62
2019-01-26T19:41:43.880Z,95956.38
2019-01-26T19:44:14.061Z,95950.09
2019-01-26T19:46:44.283Z,95940.07
2019-01-26T19:49:14.463Z,95953.45
2019-01-26T19:51:44.526Z,95940.07
2019-01-26T19:54:14.716Z,95934.70
2019-01-26T19:56:44.783Z,95927.19
2019-01-26T19:59:14.952Z,95926.80
2019-01-26T20:01:45.004Z,95926.83
2019-01-26T20:04:15.225Z,95920.14
2019-01-26T20:06:45.647Z,95922.25
2019-01-26T20:09:16.275Z,95912.72
2019-01-26T20:11:46.496Z,95910.31
2019-01-26T20:14:16.711Z,95910.41
2019-01-26T20:16:46.918Z,95904.99
2019-01-26T20:19:16.987Z,95904.59
2019-01-26T20:21:47.120Z,95896.23
2019-01-26T20:24:17.159Z,95897.48
2019-01-26T20:26:47.433Z,95906.34
2019-01-26T20:29:17.554Z,95903.74
2019-01-26T20:31:47.769Z,95906.25
2019-01-26T20:34:17.969Z,95902.06
2019-01-26T20:36:48.021Z,95906.19
2019-01-26T20:39:18.150Z,95908.69
2019-01-26T20:41:48.415Z,95896.78
2019-01-26T20:44:18.546Z,95903.68
2019-01-26T20:46:48.808Z,95897.79
2019-01-26T20:49:18.866Z,95902.06
2019-01-26T20:51:49.202Z,95900.75
2019-01-26T20:54:19.306Z,95902.00
2019-01-26T20:56:49.541Z,95895.31
2019-01-26T20:59:19.651Z,95884.48
2019-01-26T21:01:49.913Z,95880.27
2019-01-26T21:04:20.017Z,95888.66
2019-01-26T21:06:50.172Z,95880.36
2019-01-26T21:09:20.481Z,95874.95
2019-01-26T21:11:50.526Z,95865.33
2019-01-26T21:14:20.749Z,95861.95
2019-01-26T21:16:50.961Z,95865.67
2019-01-26T21:19:20.993Z,95864.36
2019-01-26T21:21:51.269Z,95859.72
2019-01-26T21:24:21.531Z,95860.12
2019-01-26T21:26:51.745Z,95856.24
2019-01-26T21:29:21.938Z,95854.96
2019-01-26T21:31:52.130Z,95854.96
2019-01-26T21:34:22.374Z,95850.69
2019-01-26T21:36:52.554Z,95850.17
2019-01-26T21:39:23.747Z,95843.00
2019-01-26T21:41:53.817Z,95836.13
2019-01-26T21:44:23.950Z,95839.46
2019-01-26T21:46:54.068Z,95836.44
2019-01-26T21:49:24.234Z,95842.70
2019-01-26T21:51:54.353Z,95834.24
2019-01-26T21:54:24.604Z,95840.00
2019-01-26T21:56:54.676Z,95840.80
2019-01-26T21:59:24.793Z,95832.31
2019-01-26T22:01:54.865Z,95834.69
2019-01-26T22:04:25.228Z,95830.41
2019-01-26T22:06:55.347Z,95826.96
2019-01-26T22:09:25.398Z,95833.52
2019-01-26T22:11:55.491Z,95820.06
2019-01-26T22:14:25.610Z,95818.25
2019-01-26T22:16:55.677Z,95824.02
2019-01-26T22:19:25.701Z,95820.62
2019-01-26T22:21:55.848Z,95814.31
2019-01-26T22:24:25.853Z,95807.59
2019-01-26T22:26:55.849Z,95813.06
2019-01-26T22:29:31.183Z,95804.30
2019-01-26T22:31:57.734Z,95792.23
2019-01-26T22:34:27.861Z,95790.62
2019-01-26T22:36:57.930Z,95782.33
2019-01-26T22:39:28.165Z,95782.36
2019-01-26T22:41:58.274Z,95774.01
2019-01-26T22:44:28.309Z,95773.16
2019-01-26T22:46:58.370Z,95765.63
2019-01-26T22:49:28.408Z,95762.23
2019-01-26T22:51:58.462Z,95767.23
2019-01-26T22:54:28.504Z,95758.06
2019-01-26T22:56:58.565Z,95757.17
2019-01-26T22:59:28.586Z,95757.14
2019-01-26T23:01:58.760Z,95751.74
2019-01-26T23:04:50.790Z,95745.86
2019-01-26T23:07:30.828Z,95748.78
2019-01-26T23:10:31.056Z,95741.28
2019-01-26T23:13:40.836Z,95733.78
2019-01-26T23:16:46.626Z,95729.67
2019-01-26T23:19:32.951Z,95715.55
2019-01-26T23:23:02.089Z,95715.55
2019-01-26T23:26:27.356Z,95708.09
2019-01-26T23:29:27.396Z,95700.62
2019-01-26T23:31:57.478Z,95693.11
2019-01-26T23:34:27.542Z,95691.92
2019-01-26T23:36:57.658Z,95684.00
2019-01-26T23:39:27.814Z,95678.17
2019-01-26T23:41:57.882Z,95684.06
2019-01-26T23:44:27.904Z,95664.85
2019-01-26T23:46:57.875Z,95662.33
2019-01-26T23:49:27.937Z,95656.44
2019-01-26T23:51:57.931Z,95655.56
2019-01-26T23:54:28.014Z,95653.82
2019-01-26T23:56:58.064Z,95651.30
2019-01-26T23:59:28.109Z,95644.64
